Time;durP1;ratioP1;P1;durP2;ratioP2;P2;SDS_P1;SDS_P2;PMS_P1;PMS_P2;Temp;Humidity;BMP_temperature;BMP_pressure;BME280_temperature;BME280_humidity;BME280_pressure;Samples;Min_cycle;Max_cycle;Signal;HPM_P1;HPM_P2
2021/09/03 00:01:27;;;;;;;40.20;22.55;;;10.90;99.90;;;;;;5065539;28;20527;-77
2021/09/03 00:03:54;;;;;;;42.72;23.88;;;10.80;99.90;;;;;;5066242;28;20251;-77
2021/09/03 00:06:20;;;;;;;42.45;23.27;;;10.80;99.90;;;;;;5063878;28;20048;-77
2021/09/03 00:08:47;;;;;;;36.38;21.42;;;10.70;99.90;;;;;;5049694;28;20068;-76
2021/09/03 00:11:14;;;;;;;36.83;22.20;;;10.70;99.90;;;;;;5054695;28;20135;-75
2021/09/03 00:13:41;;;;;;;33.95;21.30;;;10.70;99.90;;;;;;5083251;28;20060;-75
2021/09/03 00:16:07;;;;;;;39.55;22.63;;;10.60;99.90;;;;;;5084239;28;20036;-75
2021/09/03 00:18:34;;;;;;;36.05;20.35;;;10.70;99.90;;;;;;5065013;28;20054;-75
2021/09/03 00:21:01;;;;;;;38.92;23.55;;;10.60;99.90;;;;;;5064830;28;20583;-77
2021/09/03 00:23:28;;;;;;;45.15;25.45;;;10.80;99.90;;;;;;5083685;28;20461;-77
2021/09/03 00:25:54;;;;;;;52.80;27.98;;;10.90;99.90;;;;;;5083677;28;20036;-76
2021/09/03 00:28:21;;;;;;;45.88;25.13;;;10.80;99.90;;;;;;5066358;28;20377;-76
2021/09/03 00:30:48;;;;;;;46.55;25.65;;;10.70;99.90;;;;;;5082543;28;20043;-77
2021/09/03 00:33:15;;;;;;;35.22;21.48;;;10.60;99.90;;;;;;5065036;28;20040;-77
2021/09/03 00:35:41;;;;;;;36.38;20.95;;;10.50;99.90;;;;;;5083523;28;20139;-75
2021/09/03 00:38:08;;;;;;;33.80;20.73;;;10.50;99.90;;;;;;5064950;28;20115;-75
2021/09/03 00:40:35;;;;;;;35.53;20.10;;;10.40;99.90;;;;;;5079456;28;20395;-76
2021/09/03 00:43:02;;;;;;;31.27;19.35;;;10.40;99.90;;;;;;5084079;28;20271;-76
2021/09/03 00:45:29;;;;;;;34.58;19.80;;;10.30;99.90;;;;;;5031965;28;20345;-75
2021/09/03 00:47:55;;;;;;;33.42;20.63;;;10.40;99.90;;;;;;5065603;28;20044;-77
2021/09/03 00:50:23;;;;;;;37.28;22.15;;;10.60;99.90;;;;;;5065585;28;20202;-76
2021/09/03 00:52:49;;;;;;;38.70;23.58;;;10.70;99.90;;;;;;5065685;28;20495;-76
2021/09/03 00:55:17;;;;;;;47.88;26.73;;;10.70;99.90;;;;;;5083423;28;20550;-76
2021/09/03 00:57:44;;;;;;;61.20;28.42;;;10.70;99.90;;;;;;5048909;28;20075;-76
2021/09/03 01:00:12;;;;;;;51.80;28.10;;;10.60;99.90;;;;;;5082478;28;20529;-76
2021/09/03 01:02:39;;;;;;;50.58;26.05;;;10.60;99.90;;;;;;5065392;28;20055;-76
2021/09/03 01:05:06;;;;;;;46.53;24.65;;;10.40;99.90;;;;;;5065534;28;20574;-76
2021/09/03 01:07:34;;;;;;;36.97;21.80;;;10.50;99.90;;;;;;5063520;28;20048;-77
2021/09/03 01:10:01;;;;;;;39.72;22.27;;;10.40;99.90;;;;;;5083354;28;20147;-77
2021/09/03 01:12:27;;;;;;;40.38;22.08;;;10.50;99.90;;;;;;5082651;28;20083;-76
2021/09/03 01:14:54;;;;;;;36.38;20.55;;;10.30;99.90;;;;;;5065475;28;20398;-76
2021/09/03 01:17:21;;;;;;;49.45;24.42;;;10.30;99.90;;;;;;5048113;28;20101;-75
2021/09/03 01:19:51;;;;;;;33.90;20.20;;;10.40;99.90;;;;;;5065587;28;20046;-75
2021/09/03 01:22:21;;;;;;;33.85;18.38;;;10.20;99.90;;;;;;5064418;28;20052;-76
2021/09/03 01:24:48;;;;;;;36.70;20.52;;;10.10;99.90;;;;;;5065399;28;20536;-75
2021/09/03 01:27:15;;;;;;;30.67;18.98;;;10.20;99.90;;;;;;5065997;28;20806;-77
2021/09/03 01:29:41;;;;;;;33.03;20.42;;;10.10;99.90;;;;;;5067618;28;20536;-78
2021/09/03 01:32:08;;;;;;;41.20;21.88;;;10.20;99.90;;;;;;5032346;28;20072;-76
2021/09/03 01:34:35;;;;;;;43.10;23.00;;;10.00;99.90;;;;;;5067780;28;20080;-76
2021/09/03 01:37:02;;;;;;;30.40;17.83;;;10.20;99.90;;;;;;5067633;28;20566;-75
2021/09/03 01:39:29;;;;;;;32.42;19.05;;;10.00;99.90;;;;;;5068827;28;20087;-75
2021/09/03 01:41:55;;;;;;;44.45;25.50;;;10.00;99.90;;;;;;5085757;28;20084;-77
2021/09/03 01:44:22;;;;;;;43.78;20.15;;;10.10;99.90;;;;;;5087259;28;20083;-77
2021/09/03 01:46:49;;;;;;;43.20;22.80;;;10.00;99.90;;;;;;5087040;28;20084;-76
2021/09/03 01:49:16;;;;;;;46.78;24.90;;;10.00;99.90;;;;;;5036008;28;20048;-76
2021/09/03 01:51:42;;;;;;;44.88;25.55;;;10.20;99.90;;;;;;5068544;28;20123;-77
2021/09/03 01:54:09;;;;;;;48.20;25.65;;;10.30;99.90;;;;;;5087698;28;20134;-77
2021/09/03 01:56:36;;;;;;;45.53;25.40;;;10.10;99.90;;;;;;5051532;28;20147;-75
2021/09/03 01:59:02;;;;;;;48.50;26.48;;;10.10;99.90;;;;;;5090336;28;20178;-76
2021/09/03 02:01:29;;;;;;;52.10;26.55;;;10.30;99.90;;;;;;5088201;28;20583;-77
2021/09/03 02:03:56;;;;;;;42.45;21.85;;;10.30;99.90;;;;;;5086453;28;20054;-77
2021/09/03 02:06:23;;;;;;;40.28;23.00;;;10.10;99.90;;;;;;5066917;28;20097;-77
2021/09/03 02:08:49;;;;;;;52.72;25.80;;;10.10;99.90;;;;;;5068473;28;20044;-77
2021/09/03 02:11:17;;;;;;;54.03;27.33;;;10.10;99.90;;;;;;5085556;28;20097;-77
2021/09/03 02:13:44;;;;;;;40.42;23.65;;;10.10;99.90;;;;;;5087452;28;20456;-77
2021/09/03 02:16:11;;;;;;;35.00;21.00;;;10.00;99.90;;;;;;5068169;28;20204;-75
2021/09/03 02:18:37;;;;;;;38.00;21.40;;;9.90;99.90;;;;;;5085973;28;20067;-77
2021/09/03 02:21:04;;;;;;;41.00;23.00;;;9.90;99.90;;;;;;5068071;28;20143;-77
2021/09/03 02:23:31;;;;;;;52.10;26.50;;;9.80;99.90;;;;;;5085187;28;20419;-75
2021/09/03 02:25:59;;;;;;;52.35;25.70;;;9.80;99.90;;;;;;5084543;28;20175;-76
2021/09/03 02:28:25;;;;;;;45.40;23.98;;;9.80;99.90;;;;;;5051350;28;20123;-76
2021/09/03 02:30:52;;;;;;;38.45;22.73;;;9.80;99.90;;;;;;5068107;28;20127;-76
2021/09/03 02:33:19;;;;;;;34.40;21.13;;;9.80;99.90;;;;;;5086298;28;20083;-76
2021/09/03 02:35:46;;;;;;;36.17;20.92;;;9.70;99.90;;;;;;5066844;28;20044;-76
2021/09/03 02:38:13;;;;;;;31.75;19.45;;;9.70;99.90;;;;;;5048462;28;21037;-76
2021/09/03 02:40:39;;;;;;;35.22;20.92;;;9.60;99.90;;;;;;5072504;28;20105;-76
2021/09/03 02:43:06;;;;;;;55.67;29.42;;;9.60;99.90;;;;;;5076430;28;20043;-75
2021/09/03 02:45:33;;;;;;;87.28;43.67;;;9.60;99.90;;;;;;5049370;28;20412;-75
2021/09/03 02:48:01;;;;;;;93.38;43.33;;;9.80;99.90;;;;;;5053312;28;20040;-75
2021/09/03 02:50:29;;;;;;;101.95;45.72;;;9.80;99.90;;;;;;5066218;28;20314;-75
2021/09/03 02:52:58;;;;;;;116.60;48.70;;;9.90;99.90;;;;;;5050618;28;20113;-75
2021/09/03 02:55:26;;;;;;;104.43;45.90;;;9.90;99.90;;;;;;5049348;28;20193;-77
2021/09/03 02:57:54;;;;;;;62.10;30.75;;;9.80;99.90;;;;;;5048441;28;20109;-75
2021/09/03 03:00:21;;;;;;;48.72;28.50;;;9.70;99.90;;;;;;5084744;28;20204;-75
2021/09/03 03:02:48;;;;;;;45.17;23.10;;;9.60;99.90;;;;;;5050227;28;20093;-76
2021/09/03 03:05:15;;;;;;;50.03;25.15;;;9.60;99.90;;;;;;5066897;28;20044;-76
2021/09/03 03:07:41;;;;;;;37.90;21.67;;;9.50;99.90;;;;;;5066859;28;20131;-75
2021/09/03 03:10:09;;;;;;;36.25;20.88;;;9.40;99.90;;;;;;5084353;28;20197;-74
2021/09/03 03:12:35;;;;;;;55.78;30.15;;;9.40;99.90;;;;;;5077275;28;20647;-75
2021/09/03 03:15:03;;;;;;;50.03;28.98;;;9.50;99.90;;;;;;5067051;28;20067;-77
2021/09/03 03:17:31;;;;;;;85.13;34.80;;;9.60;99.90;;;;;;5084524;27;20056;-76
2021/09/03 03:19:57;;;;;;;65.32;30.50;;;9.60;99.90;;;;;;5085382;28;20095;-75
2021/09/03 03:22:24;;;;;;;57.97;27.10;;;9.50;99.90;;;;;;5084356;28;20139;-77
2021/09/03 03:24:51;;;;;;;65.45;29.58;;;9.50;99.90;;;;;;5099887;28;20507;-75
2021/09/03 03:27:18;;;;;;;82.13;33.13;;;9.50;99.90;;;;;;5066636;28;20075;-75
2021/09/03 03:29:45;;;;;;;70.53;31.63;;;9.60;99.90;;;;;;5066456;28;20036;-75
2021/09/03 03:32:12;;;;;;;55.13;25.80;;;9.60;99.90;;;;;;5084222;28;20047;-77
2021/09/03 03:34:39;;;;;;;55.70;27.80;;;9.60;99.90;;;;;;5084020;28;20564;-75
2021/09/03 03:37:05;;;;;;;46.38;23.88;;;9.50;99.90;;;;;;5065492;28;20094;-77
2021/09/03 03:39:32;;;;;;;52.40;24.65;;;9.50;99.90;;;;;;5073115;28;20109;-75
2021/09/03 03:41:59;;;;;;;215.90;47.17;;;9.40;99.90;;;;;;5083539;28;20107;-77
2021/09/03 03:44:25;;;;;;;234.70;54.60;;;9.40;99.90;;;;;;5048605;28;20068;-77
2021/09/03 03:46:52;;;;;;;111.78;40.13;;;9.50;99.90;;;;;;5082780;28;20245;-77
2021/09/03 03:49:19;;;;;;;67.53;30.00;;;9.50;99.90;;;;;;5053649;28;20048;-74
2021/09/03 03:51:48;;;;;;;81.25;33.08;;;9.40;99.90;;;;;;5064428;28;20128;-77
2021/09/03 03:54:14;;;;;;;81.30;32.67;;;9.50;99.90;;;;;;5065852;28;20117;-76
2021/09/03 03:56:41;;;;;;;64.78;30.15;;;9.50;99.90;;;;;;5083183;28;20508;-75
2021/09/03 03:59:08;;;;;;;55.17;24.67;;;9.40;99.90;;;;;;5083215;28;20500;-75
2021/09/03 04:01:35;;;;;;;55.38;25.58;;;9.40;99.90;;;;;;5066999;28;20464;-75
2021/09/03 04:04:02;;;;;;;51.92;25.63;;;9.30;99.90;;;;;;5066287;28;20036;-76
2021/09/03 04:06:29;;;;;;;53.75;26.45;;;9.30;99.90;;;;;;5066235;28;20311;-76
2021/09/03 04:08:56;;;;;;;66.15;31.08;;;9.20;99.90;;;;;;5066770;28;20119;-75
2021/09/03 04:11:22;;;;;;;69.28;33.30;;;9.20;99.90;;;;;;5064318;28;20504;-75
2021/09/03 04:13:49;;;;;;;57.72;28.60;;;9.20;99.90;;;;;;5065598;28;20087;-75
2021/09/03 04:16:16;;;;;;;92.75;34.72;;;9.20;99.90;;;;;;5083284;28;20074;-76
2021/09/03 04:18:43;;;;;;;104.65;37.40;;;9.20;99.90;;;;;;5031281;28;20195;-75
2021/09/03 04:21:09;;;;;;;150.70;43.00;;;9.30;99.90;;;;;;5064951;28;20052;-75
2021/09/03 04:23:36;;;;;;;112.65;37.25;;;9.30;99.90;;;;;;5082535;28;20055;-75
2021/09/03 04:26:03;;;;;;;168.85;43.17;;;9.30;99.90;;;;;;5064799;28;20032;-76
2021/09/03 04:28:30;;;;;;;91.43;34.72;;;9.20;99.90;;;;;;5066298;28;20470;-76
2021/09/03 04:30:56;;;;;;;124.15;38.65;;;9.30;99.90;;;;;;5083403;28;20093;-76
2021/09/03 04:33:23;;;;;;;80.72;33.50;;;9.40;99.90;;;;;;5065353;28;20888;-76
2021/09/03 04:35:50;;;;;;;93.25;35.65;;;9.40;99.90;;;;;;5065103;28;20093;-76
2021/09/03 04:38:17;;;;;;;81.90;32.92;;;9.30;99.90;;;;;;5065524;28;20051;-76
2021/09/03 04:40:44;;;;;;;105.32;37.03;;;9.30;99.90;;;;;;5080623;28;20052;-76
2021/09/03 04:43:11;;;;;;;119.93;39.92;;;9.30;99.90;;;;;;5081931;28;20488;-76
2021/09/03 04:45:37;;;;;;;71.57;30.20;;;9.20;99.90;;;;;;5082510;28;20457;-77
2021/09/03 04:48:04;;;;;;;117.55;38.30;;;9.20;99.90;;;;;;5077002;28;20120;-76
2021/09/03 04:50:31;;;;;;;82.75;32.15;;;9.20;99.90;;;;;;5082101;28;20105;-78
2021/09/03 04:52:58;;;;;;;76.03;31.13;;;9.10;99.90;;;;;;5081896;28;20679;-75
2021/09/03 04:55:24;;;;;;;90.07;34.13;;;9.20;99.90;;;;;;5062130;28;20067;-75
2021/09/03 04:57:51;;;;;;;87.50;31.75;;;9.20;99.90;;;;;;5064466;28;20056;-75
2021/09/03 05:00:18;;;;;;;75.78;31.30;;;9.30;99.90;;;;;;5063882;28;20593;-76
2021/09/03 05:02:45;;;;;;;78.93;31.98;;;9.20;99.90;;;;;;5063953;28;20044;-76
2021/09/03 05:05:13;;;;;;;68.07;29.23;;;9.20;99.90;;;;;;5062688;28;20044;-75
2021/09/03 05:07:39;;;;;;;68.07;29.65;;;9.30;99.90;;;;;;5047016;28;20048;-78
2021/09/03 05:10:08;;;;;;;73.68;31.75;;;9.20;99.90;;;;;;5081078;28;20051;-75
2021/09/03 05:12:37;;;;;;;70.38;30.90;;;9.20;99.90;;;;;;5078240;28;20360;-75
2021/09/03 05:15:09;;;;;;;79.05;31.42;;;9.20;99.90;;;;;;5064751;28;20109;-76
2021/09/03 05:17:37;;;;;;;61.78;28.45;;;9.30;99.90;;;;;;5082456;28;20052;-75
2021/09/03 05:20:05;;;;;;;64.20;30.08;;;9.30;99.90;;;;;;5047187;28;20181;-75
2021/09/03 05:22:35;;;;;;;71.65;30.70;;;9.50;99.90;;;;;;5063482;28;20547;-75
2021/09/03 05:25:03;;;;;;;74.78;33.10;;;9.70;99.90;;;;;;5063659;28;20507;-77
2021/09/03 05:27:31;;;;;;;80.18;34.53;;;9.80;99.90;;;;;;5063976;28;20051;-75
2021/09/03 05:29:58;;;;;;;79.75;33.97;;;10.00;99.90;;;;;;5064309;28;20109;-75
2021/09/03 05:32:24;;;;;;;95.38;38.42;;;10.00;99.90;;;;;;5081689;28;20056;-77
2021/09/03 05:34:51;;;;;;;148.88;44.67;;;10.10;99.90;;;;;;5082411;28;20052;-75
2021/09/03 05:37:18;;;;;;;188.90;50.40;;;10.20;99.90;;;;;;5043002;28;20040;-75
2021/09/03 05:39:44;;;;;;;139.95;43.00;;;10.30;99.90;;;;;;5081349;28;20109;-75
2021/09/03 05:42:12;;;;;;;105.75;42.22;;;10.30;99.90;;;;;;5063164;28;20593;-75
2021/09/03 05:44:38;;;;;;;107.00;41.22;;;10.30;99.90;;;;;;5063901;28;20040;-75
2021/09/03 05:47:05;;;;;;;95.55;40.25;;;10.40;99.90;;;;;;5046409;28;20113;-76
2021/09/03 05:49:32;;;;;;;106.18;42.08;;;10.50;99.90;;;;;;5047000;28;20490;-76
2021/09/03 05:51:59;;;;;;;101.57;40.45;;;10.40;99.90;;;;;;5066997;28;20435;-76
2021/09/03 05:54:26;;;;;;;96.00;38.85;;;10.40;99.90;;;;;;5077579;28;20122;-76
2021/09/03 05:56:52;;;;;;;114.75;41.35;;;10.40;99.90;;;;;;5062650;28;20109;-75
2021/09/03 05:59:21;;;;;;;118.68;44.78;;;10.60;99.90;;;;;;5081985;28;20064;-76
2021/09/03 06:01:47;;;;;;;126.82;44.38;;;10.80;99.90;;;;;;5097403;28;20090;-76
2021/09/03 06:04:15;;;;;;;106.85;42.35;;;10.90;99.90;;;;;;5080996;28;20032;-75
2021/09/03 06:06:41;;;;;;;107.20;42.13;;;11.10;99.90;;;;;;5078446;28;20504;-76
2021/09/03 06:09:08;;;;;;;100.97;42.05;;;11.30;99.90;;;;;;5082297;28;20385;-76
2021/09/03 06:11:35;;;;;;;125.75;47.72;;;11.50;99.90;;;;;;5047118;28;20052;-75
2021/09/03 06:14:02;;;;;;;132.48;50.53;;;11.60;99.90;;;;;;5085108;28;20105;-78
2021/09/03 06:16:28;;;;;;;126.45;47.35;;;11.60;99.90;;;;;;5067506;28;20071;-76
2021/09/03 06:18:55;;;;;;;114.30;43.60;;;11.70;99.90;;;;;;5086120;28;20079;-76
2021/09/03 06:21:22;;;;;;;112.53;44.42;;;11.70;99.90;;;;;;5066584;28;20068;-76
2021/09/03 06:23:49;;;;;;;122.60;47.45;;;11.80;99.90;;;;;;5085530;28;20075;-76
2021/09/03 06:26:16;;;;;;;114.20;47.40;;;12.10;99.90;;;;;;5086287;28;20148;-76
2021/09/03 06:28:42;;;;;;;125.22;50.47;;;12.30;99.90;;;;;;5068167;28;20078;-76
2021/09/03 06:31:09;;;;;;;121.75;48.28;;;12.50;99.90;;;;;;5066753;28;20063;-76
2021/09/03 06:33:36;;;;;;;122.90;47.08;;;12.80;99.90;;;;;;5034609;28;20079;-75
2021/09/03 06:36:03;;;;;;;113.43;47.55;;;12.90;99.90;;;;;;5050334;28;20105;-76
2021/09/03 06:38:31;;;;;;;102.85;44.97;;;13.00;99.90;;;;;;5085085;28;20083;-76
2021/09/03 06:40:59;;;;;;;102.75;46.40;;;13.20;99.90;;;;;;5050681;28;20498;-75
2021/09/03 06:43:26;;;;;;;106.25;45.17;;;13.40;99.90;;;;;;5050093;28;20067;-76
2021/09/03 06:45:53;;;;;;;95.20;46.92;;;13.50;99.90;;;;;;5085618;28;20044;-76
2021/09/03 06:48:22;;;;;;;88.07;43.70;;;13.70;99.90;;;;;;5067636;28;20121;-75
2021/09/03 06:50:50;;;;;;;95.13;46.22;;;13.80;99.90;;;;;;5084746;28;20127;-75
2021/09/03 06:53:17;;;;;;;97.72;46.92;;;13.90;99.90;;;;;;5067726;28;20062;-73
2021/09/03 06:55:44;;;;;;;90.63;44.75;;;14.00;99.90;;;;;;5083059;27;20060;-74
2021/09/03 06:58:11;;;;;;;83.47;43.13;;;14.10;99.90;;;;;;5083971;28;20108;-74
2021/09/03 07:00:37;;;;;;;86.60;43.85;;;14.20;99.90;;;;;;5085395;28;20576;-74
2021/09/03 07:03:04;;;;;;;71.75;39.97;;;14.30;99.90;;;;;;5067379;28;20322;-73
2021/09/03 07:05:31;;;;;;;67.40;36.70;;;14.40;99.90;;;;;;5067250;28;20067;-78
2021/09/03 07:07:58;;;;;;;56.40;33.92;;;14.70;99.90;;;;;;5068652;28;20291;-78
2021/09/03 07:10:25;;;;;;;45.85;30.70;;;15.00;99.90;;;;;;5058692;28;20134;-78
2021/09/03 07:12:52;;;;;;;52.55;31.30;;;15.40;99.90;;;;;;5058681;28;20329;-77
2021/09/03 07:15:18;;;;;;;44.92;28.48;;;15.70;99.90;;;;;;5073515;28;20063;-82
2021/09/03 07:17:45;;;;;;;36.00;25.73;;;16.20;99.90;;;;;;5052858;28;20059;-78
2021/09/03 07:20:12;;;;;;;34.78;25.95;;;16.50;99.90;;;;;;5071288;28;20091;-78
2021/09/03 07:22:39;;;;;;;35.70;23.77;;;16.80;99.90;;;;;;5078931;28;20097;-78
2021/09/03 07:25:06;;;;;;;32.42;21.65;;;17.20;99.90;;;;;;5069272;28;20940;-75
2021/09/03 07:27:33;;;;;;;30.27;22.02;;;17.70;99.90;;;;;;5085218;28;20041;-76
2021/09/03 07:30:00;;;;;;;30.33;21.60;;;18.10;99.90;;;;;;5084853;28;20052;-74
2021/09/03 07:32:27;;;;;;;28.50;21.25;;;18.50;99.90;;;;;;5083106;28;20056;-74
2021/09/03 07:34:54;;;;;;;29.58;20.98;;;19.00;99.90;;;;;;5084508;28;20056;-74
2021/09/03 07:37:21;;;;;;;28.45;18.83;;;19.60;99.90;;;;;;5072241;28;20062;-73
2021/09/03 07:39:47;;;;;;;28.90;20.05;;;20.10;99.90;;;;;;5054187;28;20052;-74
2021/09/03 07:42:14;;;;;;;27.33;20.13;;;20.60;99.90;;;;;;5084555;28;20048;-74
2021/09/03 07:44:41;;;;;;;27.00;18.90;;;21.00;99.90;;;;;;5065786;28;20337;-73
2021/09/03 07:47:08;;;;;;;26.27;19.63;;;21.20;99.90;;;;;;5064519;28;20036;-75
2021/09/03 07:49:34;;;;;;;23.48;18.55;;;21.50;99.90;;;;;;5062396;28;20048;-74
2021/09/03 07:52:01;;;;;;;24.48;21.73;;;21.80;99.90;;;;;;5084394;28;20082;-74
2021/09/03 07:54:28;;;;;;;21.98;19.73;;;22.20;99.90;;;;;;5066704;28;20643;-74
2021/09/03 07:56:55;;;;;;;23.67;21.25;;;22.40;99.90;;;;;;5082821;28;20504;-74
2021/09/03 07:59:21;;;;;;;23.00;20.65;;;22.50;99.90;;;;;;5091490;22;20480;-69
2021/09/03 08:01:48;;;;;;;25.73;20.45;;;22.50;99.90;;;;;;5058115;28;20467;-73
2021/09/03 08:04:17;;;;;;;24.70;21.00;;;22.50;99.90;;;;;;5056867;28;20118;-71
2021/09/03 08:06:44;;;;;;;24.08;21.45;;;22.50;99.90;;;;;;5060871;28;20075;-70
2021/09/03 08:09:11;;;;;;;27.13;23.92;;;22.40;99.90;;;;;;5060808;28;20063;-70
2021/09/03 08:11:37;;;;;;;23.48;20.88;;;22.10;99.90;;;;;;5062480;28;20052;-70
2021/09/03 08:14:04;;;;;;;24.73;21.52;;;22.10;99.90;;;;;;5063170;28;20084;-70
2021/09/03 08:16:31;;;;;;;21.92;19.73;;;22.20;99.90;;;;;;5060757;28;20045;-71
2021/09/03 08:18:58;;;;;;;22.05;19.75;;;22.50;99.90;;;;;;5060991;28;20076;-71
2021/09/03 08:21:25;;;;;;;21.85;19.80;;;22.60;99.90;;;;;;5062747;28;20406;-71
2021/09/03 08:23:51;;;;;;;22.33;20.10;;;22.70;99.90;;;;;;5058781;28;20539;-71
2021/09/03 08:26:18;;;;;;;21.88;19.63;;;22.70;99.90;;;;;;5061533;28;20064;-73
2021/09/03 08:28:45;;;;;;;20.70;18.52;;;22.70;99.90;;;;;;5062047;28;20094;-72
2021/09/03 08:31:12;;;;;;;19.33;17.73;;;22.80;99.90;;;;;;5061336;28;20048;-72
2021/09/03 08:33:39;;;;;;;20.38;17.20;;;22.70;99.90;;;;;;5062238;28;20494;-72
2021/09/03 08:36:06;;;;;;;18.35;16.73;;;22.70;99.90;;;;;;5059967;28;20048;-71
2021/09/03 08:38:33;;;;;;;18.50;16.73;;;22.80;99.90;;;;;;5060707;28;20049;-71
2021/09/03 08:41:00;;;;;;;19.02;17.23;;;22.90;99.90;;;;;;5063070;28;20048;-71
2021/09/03 08:43:27;;;;;;;19.23;17.08;;;22.90;99.90;;;;;;5064372;28;20452;-71
2021/09/03 08:45:54;;;;;;;17.23;15.63;;;23.00;99.90;;;;;;5060471;28;20055;-69
2021/09/03 08:48:23;;;;;;;17.75;16.30;;;23.10;99.90;;;;;;5042505;28;20497;-70
2021/09/03 08:50:53;;;;;;;17.95;16.33;;;22.80;99.90;;;;;;5044366;28;20044;-73
2021/09/03 08:53:22;;;;;;;20.58;18.48;;;22.80;99.90;;;;;;5047175;28;20083;-72
2021/09/03 08:55:53;;;;;;;20.85;18.77;;;23.20;99.90;;;;;;5024620;28;20223;-71
2021/09/03 08:58:20;;;;;;;21.13;19.00;;;23.40;99.90;;;;;;5040427;28;20057;-73
2021/09/03 09:01:10;;;;;;;20.55;18.60;;;22.70;99.90;;;;;;5039856;28;20091;-70
2021/09/03 09:03:46;;;;;;;19.33;17.73;;;22.50;99.90;;;;;;5053711;28;20124;-74
2021/09/03 09:06:25;;;;;;;22.88;18.85;;;22.90;99.90;;;;;;5056132;28;20041;-75
2021/09/03 09:09:08;;;;;;;19.92;18.23;;;23.10;99.90;;;;;;5052937;28;20053;-73
2021/09/03 09:11:37;;;;;;;19.73;18.02;;;23.20;99.90;;;;;;5052921;28;20052;-72
2021/09/03 09:14:10;;;;;;;20.23;18.23;;;22.40;99.90;;;;;;5044817;28;20043;-73
2021/09/03 09:16:36;;;;;;;19.60;18.02;;;22.20;99.90;;;;;;5059123;28;20328;-73
2021/09/03 09:19:05;;;;;;;18.50;16.75;;;22.60;99.90;;;;;;5061457;28;20041;-71
2021/09/03 09:21:37;;;;;;;19.60;16.95;;;23.20;99.90;;;;;;5059004;28;20519;-71
2021/09/03 09:24:07;;;;;;;18.40;16.83;;;22.50;99.90;;;;;;5062623;28;20340;-72
2021/09/03 09:26:48;;;;;;;19.45;17.75;;;22.60;99.90;;;;;;5044642;28;20068;-71
2021/09/03 09:29:17;;;;;;;24.55;17.77;;;23.00;99.90;;;;;;5026790;28;20122;-72
2021/09/03 09:31:47;;;;;;;20.27;18.48;;;23.40;99.90;;;;;;5061978;28;20173;-72
2021/09/03 09:34:28;;;;;;;21.20;17.38;;;23.60;99.90;;;;;;5061558;28;20405;-72
2021/09/03 09:36:59;;;;;;;18.45;16.88;;;23.70;99.90;;;;;;5073176;28;20041;-72
2021/09/03 09:39:26;;;;;;;19.38;17.77;;;23.00;99.90;;;;;;5042083;28;20087;-71
2021/09/03 09:41:59;;;;;;;18.23;16.70;;;22.60;99.90;;;;;;5034368;28;20520;-72
2021/09/03 09:44:31;;;;;;;20.90;18.90;;;22.30;99.90;;;;;;5059843;28;20094;-71
2021/09/03 09:47:03;;;;;;;19.20;17.60;;;22.20;99.90;;;;;;5079079;28;20106;-71
2021/09/03 09:49:30;;;;;;;19.52;17.88;;;21.80;99.90;;;;;;5063669;28;20059;-72
2021/09/03 09:51:57;;;;;;;19.48;17.77;;;22.30;99.90;;;;;;5047277;28;20455;-72
2021/09/03 09:54:26;;;;;;;18.77;17.27;;;22.90;99.90;;;;;;5081203;28;20060;-72
2021/09/03 09:56:56;;;;;;;18.63;17.00;;;23.10;99.90;;;;;;5065554;28;20528;-73
2021/09/03 09:59:25;;;;;;;18.55;17.00;;;23.70;99.90;;;;;;5044342;28;20481;-72
2021/09/03 10:01:58;;;;;;;18.50;16.98;;;23.80;99.90;;;;;;5044370;28;20217;-72
2021/09/03 10:04:28;;;;;;;21.85;19.50;;;22.60;99.90;;;;;;5061067;28;20037;-72
2021/09/03 10:06:59;;;;;;;18.90;17.38;;;22.30;99.90;;;;;;5061944;28;20320;-71
2021/09/03 10:09:31;;;;;;;20.45;18.38;;;22.20;99.90;;;;;;5062092;28;20136;-71
2021/09/03 10:11:58;;;;;;;20.70;18.80;;;22.40;99.90;;;;;;5065518;28;20044;-72
2021/09/03 10:14:27;;;;;;;20.50;18.85;;;22.20;99.90;;;;;;5066054;28;20056;-71
2021/09/03 10:16:56;;;;;;;20.17;18.45;;;22.40;99.90;;;;;;5060186;28;20094;-72
2021/09/03 10:19:26;;;;;;;20.52;18.88;;;22.00;99.90;;;;;;5063764;28;20110;-71
2021/09/03 10:22:10;;;;;;;20.95;19.23;;;22.40;99.90;;;;;;5079941;28;20044;-73
2021/09/03 10:24:38;;;;;;;20.75;19.10;;;23.10;99.90;;;;;;5063494;28;20109;-72
2021/09/03 10:27:07;;;;;;;22.08;20.27;;;23.00;99.90;;;;;;5060185;28;20049;-72
2021/09/03 10:29:38;;;;;;;21.73;19.80;;;22.60;99.90;;;;;;5063758;28;20253;-72
2021/09/03 10:32:08;;;;;;;20.83;18.85;;;23.00;99.90;;;;;;5060158;28;20068;-72
2021/09/03 10:34:44;;;;;;;23.15;20.70;;;23.20;99.90;;;;;;5060837;28;20614;-73
2021/09/03 10:37:14;;;;;;;22.15;20.35;;;23.00;99.90;;;;;;5060427;28;20090;-72
2021/09/03 10:39:47;;;;;;;22.35;20.52;;;22.60;99.90;;;;;;5063376;28;20075;-73
2021/09/03 10:42:37;;;;;;;20.55;18.60;;;22.50;99.90;;;;;;5062840;28;20318;-73
2021/09/03 10:45:17;;;;;;;20.17;18.27;;;22.30;99.90;;;;;;5062965;28;20064;-72
2021/09/03 10:47:47;;;;;;;20.83;18.85;;;22.30;99.90;;;;;;5063151;28;20052;-73
2021/09/03 10:50:22;;;;;;;19.73;17.65;;;21.80;99.90;;;;;;5077733;28;20102;-72
2021/09/03 10:53:05;;;;;;;21.55;19.40;;;22.00;99.90;;;;;;5063956;28;20067;-73
2021/09/03 10:56:08;;;;;;;21.13;19.30;;;22.70;99.90;;;;;;5064374;28;20047;-73
2021/09/03 10:58:38;;;;;;;21.90;20.00;;;23.10;99.90;;;;;;5079032;28;20734;-73
2021/09/03 11:01:11;;;;;;;24.50;22.17;;;23.40;99.90;;;;;;5063847;28;20480;-74
2021/09/03 11:03:45;;;;;;;23.60;21.65;;;23.70;99.90;;;;;;5060657;28;20401;-73
2021/09/03 11:06:27;;;;;;;21.70;19.80;;;23.10;99.90;;;;;;5042899;28;20120;-73
2021/09/03 11:09:17;;;;;;;23.42;21.27;;;23.20;99.90;;;;;;5044854;28;20045;-74
2021/09/03 11:11:46;;;;;;;23.23;20.85;;;23.90;99.90;;;;;;5060443;28;20388;-73
2021/09/03 11:14:16;;;;;;;22.90;20.67;;;24.20;99.90;;;;;;5061668;28;20064;-73
2021/09/03 11:17:06;;;;;;;22.17;20.17;;;23.90;99.90;;;;;;5079473;28;20052;-73
2021/09/03 11:19:34;;;;;;;21.85;20.00;;;23.90;99.90;;;;;;5063269;28;20057;-74
2021/09/03 11:22:06;;;;;;;23.00;20.85;;;23.60;99.90;;;;;;5077302;28;20156;-73
2021/09/03 11:24:36;;;;;;;22.63;20.55;;;23.10;99.90;;;;;;5051163;28;20080;-74
2021/09/03 11:27:06;;;;;;;21.50;19.38;;;23.50;99.90;;;;;;5050971;28;20053;-73
2021/09/03 11:29:43;;;;;;;21.23;19.45;;;24.00;99.90;;;;;;5043024;28;20072;-73
2021/09/03 11:32:16;;;;;;;21.60;19.42;;;23.70;99.90;;;;;;5025044;28;20037;-74
2021/09/03 11:35:01;;;;;;;20.80;18.92;;;23.80;99.90;;;;;;5062797;28;20060;-74
2021/09/03 11:37:46;;;;;;;20.20;18.33;;;24.00;99.90;;;;;;5061646;28;20048;-72
2021/09/03 11:40:14;;;;;;;20.02;18.15;;;24.00;99.90;;;;;;5043846;28;20488;-72
2021/09/03 11:42:42;;;;;;;21.65;19.73;;;24.10;99.90;;;;;;5030611;28;20079;-73
2021/09/03 11:45:18;;;;;;;19.77;18.17;;;23.80;99.90;;;;;;5062127;28;20053;-73
2021/09/03 11:47:56;;;;;;;21.08;19.27;;;23.30;99.90;;;;;;5063499;28;20131;-74
2021/09/03 11:50:33;;;;;;;21.35;19.45;;;23.70;99.90;;;;;;5043206;28;20531;-73
2021/09/03 11:53:05;;;;;;;20.80;19.00;;;23.70;99.90;;;;;;5043463;28;20084;-73
2021/09/03 11:55:38;;;;;;;21.17;19.45;;;24.00;99.90;;;;;;5061325;28;20053;-72
2021/09/03 11:58:10;;;;;;;21.05;19.15;;;23.80;99.90;;;;;;5078543;28;20045;-72
2021/09/03 12:00:41;;;;;;;18.58;16.88;;;23.40;99.90;;;;;;5061382;28;20055;-73
2021/09/03 12:03:14;;;;;;;20.50;18.65;;;23.40;99.90;;;;;;5060752;28;20109;-74
2021/09/03 12:05:45;;;;;;;18.83;17.30;;;24.00;99.90;;;;;;5074308;28;20354;-73
2021/09/03 12:08:26;;;;;;;19.25;17.73;;;24.10;99.90;;;;;;5060733;28;20114;-73
2021/09/03 12:10:55;;;;;;;19.42;17.65;;;23.80;99.90;;;;;;5060046;28;20544;-73
2021/09/03 12:13:32;;;;;;;19.08;17.42;;;22.80;99.90;;;;;;5061097;28;20132;-73
2021/09/03 12:16:09;;;;;;;19.48;17.77;;;22.40;99.90;;;;;;5041019;28;20056;-73
2021/09/03 12:18:41;;;;;;;18.02;16.42;;;22.40;99.90;;;;;;5061010;28;20056;-74
2021/09/03 12:21:19;;;;;;;17.90;16.30;;;22.40;99.90;;;;;;5058239;28;20051;-74
2021/09/03 12:24:00;;;;;;;17.98;16.58;;;22.50;99.90;;;;;;5063282;28;20639;-72
2021/09/03 12:26:52;;;;;;;17.20;15.82;;;22.60;99.90;;;;;;5062327;28;20049;-76
2021/09/03 12:29:23;;;;;;;18.15;16.60;;;22.80;99.90;;;;;;5061862;28;20044;-75
2021/09/03 12:31:52;;;;;;;17.20;15.80;;;23.10;99.90;;;;;;5049022;28;20064;-75
2021/09/03 12:34:23;;;;;;;18.00;16.45;;;23.70;99.90;;;;;;5041432;28;20162;-75
2021/09/03 12:37:03;;;;;;;17.25;15.95;;;24.40;99.90;;;;;;5043784;28;20102;-75